Alcains, Portugal
Current Conditions -  °F | °C
As of 4:00 PM on Friday 28 Nov 2014 (Local Time) from LPMR Reporting Station
Few Clouds Few Clouds  
Wind Chill: 13°   Ceiling: Unl
Heat Index: 13°   Visibility: 6mi
Dew Point: 10°   Wind: 2mph
Humidity: 82%   Direction: NA
Pressure: 29.09"   Gusts: NA
Location:  39.92°N, 7.46°W
Report Text: LPMR 281700Z VRB02KT 9999 FEW020 FEW022CB 13/10 Q0985
Loading
Personal Weather Stations






























Interactive Weather Map New forecast layout! Learn more

10-Day Weather Forecast

Advertisements
Track Severe Weather on mobile